sensor_id;sensor_type;location;lat;lon;timestamp;P1;durP1;ratioP1;P2;durP2;ratioP2
55220;SDS011;41089;51.448;6.604;2023-12-14T00:02:00;20.38;;;12.45;;
55220;SDS011;41089;51.448;6.604;2023-12-14T00:08:01;18.25;;;11.68;;
55220;SDS011;41089;51.448;6.604;2023-12-14T00:14:03;19.48;;;13.07;;
55220;SDS011;41089;51.448;6.604;2023-12-14T00:20:03;17.55;;;11.95;;
55220;SDS011;41089;51.448;6.604;2023-12-14T00:26:04;19.50;;;13.07;;
55220;SDS011;41089;51.448;6.604;2023-12-14T00:32:05;21.13;;;14.70;;
55220;SDS011;41089;51.448;6.604;2023-12-14T00:38:06;17.35;;;12.48;;
55220;SDS011;41089;51.448;6.604;2023-12-14T00:44:06;18.20;;;13.17;;
55220;SDS011;41089;51.448;6.604;2023-12-14T00:50:07;20.08;;;13.70;;
55220;SDS011;41089;51.448;6.604;2023-12-14T00:56:08;23.52;;;15.45;;
55220;SDS011;41089;51.448;6.604;2023-12-14T01:02:09;24.10;;;16.33;;
55220;SDS011;41089;51.448;6.604;2023-12-14T01:08:09;33.97;;;18.37;;
55220;SDS011;41089;51.448;6.604;2023-12-14T01:14:09;45.45;;;21.98;;
55220;SDS011;41089;51.448;6.604;2023-12-14T01:20:10;31.33;;;19.17;;
55220;SDS011;41089;51.448;6.604;2023-12-14T01:26:10;33.42;;;21.20;;
55220;SDS011;41089;51.448;6.604;2023-12-14T01:32:11;33.88;;;20.88;;
55220;SDS011;41089;51.448;6.604;2023-12-14T01:38:11;30.30;;;19.73;;
55220;SDS011;41089;51.448;6.604;2023-12-14T01:44:11;43.03;;;25.65;;
55220;SDS011;41089;51.448;6.604;2023-12-14T01:50:12;43.47;;;24.65;;
55220;SDS011;41089;51.448;6.604;2023-12-14T01:56:13;31.50;;;20.75;;
55220;SDS011;41089;51.448;6.604;2023-12-14T02:02:13;34.00;;;22.90;;
55220;SDS011;41089;51.448;6.604;2023-12-14T02:08:13;45.33;;;25.73;;
55220;SDS011;41089;51.448;6.604;2023-12-14T02:14:14;31.17;;;20.88;;
55220;SDS011;41089;51.448;6.604;2023-12-14T02:20:14;43.80;;;23.92;;
55220;SDS011;41089;51.448;6.604;2023-12-14T02:26:15;50.53;;;26.00;;
55220;SDS011;41089;51.448;6.604;2023-12-14T02:32:15;32.57;;;22.00;;
55220;SDS011;41089;51.448;6.604;2023-12-14T02:38:15;30.07;;;18.90;;
55220;SDS011;41089;51.448;6.604;2023-12-14T02:44:16;22.58;;;17.02;;
55220;SDS011;41089;51.448;6.604;2023-12-14T02:50:17;29.17;;;19.52;;
55220;SDS011;41089;51.448;6.604;2023-12-14T02:56:18;27.55;;;21.02;;
55220;SDS011;41089;51.448;6.604;2023-12-14T03:02:19;29.65;;;19.77;;
55220;SDS011;41089;51.448;6.604;2023-12-14T03:08:20;28.35;;;18.42;;
55220;SDS011;41089;51.448;6.604;2023-12-14T03:14:20;24.25;;;17.70;;
55220;SDS011;41089;51.448;6.604;2023-12-14T03:20:21;34.53;;;22.42;;
55220;SDS011;41089;51.448;6.604;2023-12-14T03:26:24;47.20;;;26.88;;
55220;SDS011;41089;51.448;6.604;2023-12-14T03:32:25;51.75;;;28.33;;
55220;SDS011;41089;51.448;6.604;2023-12-14T03:38:25;48.33;;;29.10;;
55220;SDS011;41089;51.448;6.604;2023-12-14T03:44:25;51.47;;;28.58;;
55220;SDS011;41089;51.448;6.604;2023-12-14T03:50:26;61.22;;;31.55;;
55220;SDS011;41089;51.448;6.604;2023-12-14T03:56:28;51.00;;;28.42;;
55220;SDS011;41089;51.448;6.604;2023-12-14T04:02:28;71.05;;;30.67;;
55220;SDS011;41089;51.448;6.604;2023-12-14T04:08:29;65.60;;;32.13;;
55220;SDS011;41089;51.448;6.604;2023-12-14T04:14:29;77.53;;;33.00;;
55220;SDS011;41089;51.448;6.604;2023-12-14T04:20:30;71.28;;;32.17;;
55220;SDS011;41089;51.448;6.604;2023-12-14T04:26:30;66.50;;;30.90;;
55220;SDS011;41089;51.448;6.604;2023-12-14T04:32:30;45.67;;;25.60;;
55220;SDS011;41089;51.448;6.604;2023-12-14T04:38:31;44.15;;;25.92;;
55220;SDS011;41089;51.448;6.604;2023-12-14T04:44:31;59.67;;;29.75;;
55220;SDS011;41089;51.448;6.604;2023-12-14T04:50:32;50.20;;;27.10;;
55220;SDS011;41089;51.448;6.604;2023-12-14T04:56:32;42.37;;;23.80;;
55220;SDS011;41089;51.448;6.604;2023-12-14T05:02:33;36.28;;;23.52;;
55220;SDS011;41089;51.448;6.604;2023-12-14T05:08:33;44.20;;;25.63;;
55220;SDS011;41089;51.448;6.604;2023-12-14T05:14:34;39.05;;;24.27;;
55220;SDS011;41089;51.448;6.604;2023-12-14T05:20:35;39.10;;;25.70;;
55220;SDS011;41089;51.448;6.604;2023-12-14T05:26:37;45.33;;;26.73;;
55220;SDS011;41089;51.448;6.604;2023-12-14T05:32:39;45.03;;;25.63;;
55220;SDS011;41089;51.448;6.604;2023-12-14T05:38:39;37.65;;;24.45;;
55220;SDS011;41089;51.448;6.604;2023-12-14T05:44:41;35.03;;;22.27;;
55220;SDS011;41089;51.448;6.604;2023-12-14T05:50:41;33.83;;;22.17;;
55220;SDS011;41089;51.448;6.604;2023-12-14T05:56:42;41.80;;;23.50;;
55220;SDS011;41089;51.448;6.604;2023-12-14T06:02:42;53.80;;;27.58;;
55220;SDS011;41089;51.448;6.604;2023-12-14T06:08:43;46.70;;;27.27;;
55220;SDS011;41089;51.448;6.604;2023-12-14T06:14:44;60.35;;;28.33;;
55220;SDS011;41089;51.448;6.604;2023-12-14T06:20:45;53.30;;;28.58;;
55220;SDS011;41089;51.448;6.604;2023-12-14T06:26:45;60.00;;;30.37;;
55220;SDS011;41089;51.448;6.604;2023-12-14T06:32:46;47.45;;;27.33;;
55220;SDS011;41089;51.448;6.604;2023-12-14T06:38:46;67.70;;;31.95;;
55220;SDS011;41089;51.448;6.604;2023-12-14T06:44:46;61.05;;;33.80;;
55220;SDS011;41089;51.448;6.604;2023-12-14T06:50:47;56.73;;;31.13;;
55220;SDS011;41089;51.448;6.604;2023-12-14T06:56:48;52.90;;;28.65;;
55220;SDS011;41089;51.448;6.604;2023-12-14T07:02:48;54.10;;;30.53;;
55220;SDS011;41089;51.448;6.604;2023-12-14T07:08:49;40.30;;;26.95;;
55220;SDS011;41089;51.448;6.604;2023-12-14T07:14:50;36.45;;;25.15;;
55220;SDS011;41089;51.448;6.604;2023-12-14T07:20:51;35.25;;;24.10;;
55220;SDS011;41089;51.448;6.604;2023-12-14T07:26:51;39.30;;;26.80;;
55220;SDS011;41089;51.448;6.604;2023-12-14T07:32:51;40.07;;;25.47;;
55220;SDS011;41089;51.448;6.604;2023-12-14T07:38:52;44.65;;;26.30;;
55220;SDS011;41089;51.448;6.604;2023-12-14T07:44:53;41.78;;;28.17;;
55220;SDS011;41089;51.448;6.604;2023-12-14T07:50:54;37.22;;;24.45;;
55220;SDS011;41089;51.448;6.604;2023-12-14T07:56:55;40.72;;;26.63;;
55220;SDS011;41089;51.448;6.604;2023-12-14T08:02:55;33.85;;;24.17;;
55220;SDS011;41089;51.448;6.604;2023-12-14T08:08:56;40.58;;;25.40;;
55220;SDS011;41089;51.448;6.604;2023-12-14T08:15:00;34.45;;;24.00;;
55220;SDS011;41089;51.448;6.604;2023-12-14T08:21:00;32.90;;;22.77;;
55220;SDS011;41089;51.448;6.604;2023-12-14T08:27:01;29.60;;;22.08;;
55220;SDS011;41089;51.448;6.604;2023-12-14T08:33:01;33.85;;;22.63;;
55220;SDS011;41089;51.448;6.604;2023-12-14T08:39:08;29.17;;;22.67;;
55220;SDS011;41089;51.448;6.604;2023-12-14T08:45:08;32.67;;;21.53;;
55220;SDS011;41089;51.448;6.604;2023-12-14T08:51:11;31.05;;;22.35;;
55220;SDS011;41089;51.448;6.604;2023-12-14T08:57:12;28.83;;;21.20;;
55220;SDS011;41089;51.448;6.604;2023-12-14T09:03:12;29.47;;;20.13;;
55220;SDS011;41089;51.448;6.604;2023-12-14T09:09:12;24.83;;;20.00;;
55220;SDS011;41089;51.448;6.604;2023-12-14T09:15:13;28.40;;;20.98;;
55220;SDS011;41089;51.448;6.604;2023-12-14T09:21:15;25.90;;;19.50;;
55220;SDS011;41089;51.448;6.604;2023-12-14T09:27:16;20.77;;;17.25;;
55220;SDS011;41089;51.448;6.604;2023-12-14T09:33:18;21.70;;;16.08;;
55220;SDS011;41089;51.448;6.604;2023-12-14T09:39:21;17.05;;;14.18;;
55220;SDS011;41089;51.448;6.604;2023-12-14T09:45:23;18.27;;;14.82;;
55220;SDS011;41089;51.448;6.604;2023-12-14T09:51:24;19.25;;;14.02;;
55220;SDS011;41089;51.448;6.604;2023-12-14T09:57:27;18.38;;;15.30;;
55220;SDS011;41089;51.448;6.604;2023-12-14T10:03:28;18.55;;;15.85;;
55220;SDS011;41089;51.448;6.604;2023-12-14T10:09:28;21.38;;;15.35;;
55220;SDS011;41089;51.448;6.604;2023-12-14T10:15:29;24.53;;;17.00;;
55220;SDS011;41089;51.448;6.604;2023-12-14T10:21:29;16.37;;;12.53;;
55220;SDS011;41089;51.448;6.604;2023-12-14T10:27:31;13.73;;;10.90;;
55220;SDS011;41089;51.448;6.604;2023-12-14T10:33:32;12.82;;;10.30;;
55220;SDS011;41089;51.448;6.604;2023-12-14T10:39:35;13.37;;;10.07;;
55220;SDS011;41089;51.448;6.604;2023-12-14T10:45:37;14.40;;;10.88;;
55220;SDS011;41089;51.448;6.604;2023-12-14T10:51:39;15.70;;;12.35;;
55220;SDS011;41089;51.448;6.604;2023-12-14T10:57:42;17.23;;;12.43;;
55220;SDS011;41089;51.448;6.604;2023-12-14T11:03:43;16.80;;;11.63;;
55220;SDS011;41089;51.448;6.604;2023-12-14T11:09:44;15.43;;;12.07;;
55220;SDS011;41089;51.448;6.604;2023-12-14T11:15:46;14.75;;;12.07;;
55220;SDS011;41089;51.448;6.604;2023-12-14T11:28:02;15.27;;;11.05;;
55220;SDS011;41089;51.448;6.604;2023-12-14T11:34:03;14.68;;;11.05;;
55220;SDS011;41089;51.448;6.604;2023-12-14T11:40:07;15.18;;;12.27;;
55220;SDS011;41089;51.448;6.604;2023-12-14T11:46:08;14.48;;;10.73;;
55220;SDS011;41089;51.448;6.604;2023-12-14T11:52:09;11.80;;;9.60;;
55220;SDS011;41089;51.448;6.604;2023-12-14T11:58:13;10.60;;;9.35;;
55220;SDS011;41089;51.448;6.604;2023-12-14T12:04:15;14.82;;;10.05;;
55220;SDS011;41089;51.448;6.604;2023-12-14T12:10:17;12.00;;;9.15;;
55220;SDS011;41089;51.448;6.604;2023-12-14T12:16:18;10.02;;;8.77;;
55220;SDS011;41089;51.448;6.604;2023-12-14T12:22:19;11.57;;;8.40;;
55220;SDS011;41089;51.448;6.604;2023-12-14T12:28:19;22.40;;;9.02;;
55220;SDS011;41089;51.448;6.604;2023-12-14T12:34:19;8.50;;;7.60;;
55220;SDS011;41089;51.448;6.604;2023-12-14T12:40:21;8.60;;;7.70;;
55220;SDS011;41089;51.448;6.604;2023-12-14T12:46:22;9.75;;;7.82;;
55220;SDS011;41089;51.448;6.604;2023-12-14T12:52:23;11.97;;;7.57;;
55220;SDS011;41089;51.448;6.604;2023-12-14T12:58:23;8.85;;;6.85;;
55220;SDS011;41089;51.448;6.604;2023-12-14T13:04:26;9.10;;;7.00;;
55220;SDS011;41089;51.448;6.604;2023-12-14T13:10:27;10.65;;;6.55;;
55220;SDS011;41089;51.448;6.604;2023-12-14T13:16:28;7.85;;;7.03;;
55220;SDS011;41089;51.448;6.604;2023-12-14T13:22:28;10.53;;;8.40;;
55220;SDS011;41089;51.448;6.604;2023-12-14T13:28:29;17.48;;;9.20;;
55220;SDS011;41089;51.448;6.604;2023-12-14T13:34:29;10.10;;;8.70;;
55220;SDS011;41089;51.448;6.604;2023-12-14T13:40:29;10.30;;;8.48;;
55220;SDS011;41089;51.448;6.604;2023-12-14T13:46:30;10.57;;;9.05;;
55220;SDS011;41089;51.448;6.604;2023-12-14T13:52:30;10.13;;;9.00;;
55220;SDS011;41089;51.448;6.604;2023-12-14T13:58:31;11.47;;;9.57;;
55220;SDS011;41089;51.448;6.604;2023-12-14T14:04:34;11.15;;;9.48;;
55220;SDS011;41089;51.448;6.604;2023-12-14T14:10:35;11.03;;;9.43;;
55220;SDS011;41089;51.448;6.604;2023-12-14T14:16:35;11.20;;;8.97;;
55220;SDS011;41089;51.448;6.604;2023-12-14T14:22:38;13.68;;;9.23;;
55220;SDS011;41089;51.448;6.604;2023-12-14T14:28:43;12.32;;;9.23;;
55220;SDS011;41089;51.448;6.604;2023-12-14T14:34:43;11.95;;;9.73;;
55220;SDS011;41089;51.448;6.604;2023-12-14T14:40:45;9.88;;;8.68;;
55220;SDS011;41089;51.448;6.604;2023-12-14T14:46:46;10.52;;;8.77;;
55220;SDS011;41089;51.448;6.604;2023-12-14T14:52:47;12.50;;;9.93;;
55220;SDS011;41089;51.448;6.604;2023-12-14T14:58:48;11.35;;;9.45;;
55220;SDS011;41089;51.448;6.604;2023-12-14T15:04:49;13.30;;;9.07;;
55220;SDS011;41089;51.448;6.604;2023-12-14T15:10:49;11.90;;;9.10;;
55220;SDS011;41089;51.448;6.604;2023-12-14T15:16:49;9.93;;;8.83;;
55220;SDS011;41089;51.448;6.604;2023-12-14T15:22:50;12.68;;;8.82;;
55220;SDS011;41089;51.448;6.604;2023-12-14T15:28:51;10.95;;;8.82;;
55220;SDS011;41089;51.448;6.604;2023-12-14T15:34:51;12.03;;;9.20;;
55220;SDS011;41089;51.448;6.604;2023-12-14T15:40:52;12.35;;;9.88;;
55220;SDS011;41089;51.448;6.604;2023-12-14T15:46:52;12.97;;;10.27;;
55220;SDS011;41089;51.448;6.604;2023-12-14T15:52:52;10.95;;;9.80;;
55220;SDS011;41089;51.448;6.604;2023-12-14T15:58:53;14.63;;;10.38;;
55220;SDS011;41089;51.448;6.604;2023-12-14T16:04:54;11.93;;;9.40;;
55220;SDS011;41089;51.448;6.604;2023-12-14T16:10:55;14.88;;;11.18;;
55220;SDS011;41089;51.448;6.604;2023-12-14T16:16:56;15.97;;;11.67;;
55220;SDS011;41089;51.448;6.604;2023-12-14T16:22:56;12.70;;;10.43;;
55220;SDS011;41089;51.448;6.604;2023-12-14T16:28:56;30.13;;;18.63;;
55220;SDS011;41089;51.448;6.604;2023-12-14T16:34:57;14.10;;;11.68;;
55220;SDS011;41089;51.448;6.604;2023-12-14T16:41:00;16.90;;;11.82;;
55220;SDS011;41089;51.448;6.604;2023-12-14T16:47:02;16.70;;;11.93;;
55220;SDS011;41089;51.448;6.604;2023-12-14T16:53:02;16.25;;;12.43;;
55220;SDS011;41089;51.448;6.604;2023-12-14T16:59:03;18.00;;;13.90;;
55220;SDS011;41089;51.448;6.604;2023-12-14T17:05:03;16.63;;;12.80;;
55220;SDS011;41089;51.448;6.604;2023-12-14T17:11:05;17.58;;;13.70;;
55220;SDS011;41089;51.448;6.604;2023-12-14T17:17:05;16.50;;;14.48;;
55220;SDS011;41089;51.448;6.604;2023-12-14T17:23:06;26.27;;;19.30;;
55220;SDS011;41089;51.448;6.604;2023-12-14T17:29:06;24.17;;;18.50;;
55220;SDS011;41089;51.448;6.604;2023-12-14T17:35:09;25.90;;;16.98;;
55220;SDS011;41089;51.448;6.604;2023-12-14T17:41:10;26.35;;;16.17;;
55220;SDS011;41089;51.448;6.604;2023-12-14T17:47:12;23.20;;;16.15;;
55220;SDS011;41089;51.448;6.604;2023-12-14T17:53:12;21.10;;;15.65;;
55220;SDS011;41089;51.448;6.604;2023-12-14T17:59:13;20.53;;;15.57;;
55220;SDS011;41089;51.448;6.604;2023-12-14T18:05:13;25.02;;;16.85;;
55220;SDS011;41089;51.448;6.604;2023-12-14T18:11:13;23.37;;;17.53;;
55220;SDS011;41089;51.448;6.604;2023-12-14T18:17:14;21.50;;;15.13;;
55220;SDS011;41089;51.448;6.604;2023-12-14T18:23:14;22.57;;;16.60;;
55220;SDS011;41089;51.448;6.604;2023-12-14T18:29:16;23.05;;;16.80;;
55220;SDS011;41089;51.448;6.604;2023-12-14T18:35:17;23.58;;;16.75;;
55220;SDS011;41089;51.448;6.604;2023-12-14T18:41:18;21.95;;;16.33;;
55220;SDS011;41089;51.448;6.604;2023-12-14T18:47:18;21.63;;;15.70;;
55220;SDS011;41089;51.448;6.604;2023-12-14T18:53:19;20.58;;;15.73;;
55220;SDS011;41089;51.448;6.604;2023-12-14T18:59:19;18.73;;;14.65;;
55220;SDS011;41089;51.448;6.604;2023-12-14T19:05:21;21.33;;;15.52;;
55220;SDS011;41089;51.448;6.604;2023-12-14T19:11:26;25.40;;;16.35;;
55220;SDS011;41089;51.448;6.604;2023-12-14T19:17:27;22.40;;;16.98;;
55220;SDS011;41089;51.448;6.604;2023-12-14T19:23:28;21.98;;;17.08;;
55220;SDS011;41089;51.448;6.604;2023-12-14T19:29:29;23.67;;;16.45;;
55220;SDS011;41089;51.448;6.604;2023-12-14T19:35:29;23.20;;;17.13;;
55220;SDS011;41089;51.448;6.604;2023-12-14T19:41:30;24.97;;;16.30;;
55220;SDS011;41089;51.448;6.604;2023-12-14T19:47:30;24.88;;;16.92;;
55220;SDS011;41089;51.448;6.604;2023-12-14T19:53:35;27.60;;;18.05;;
55220;SDS011;41089;51.448;6.604;2023-12-14T19:59:35;24.30;;;17.08;;
55220;SDS011;41089;51.448;6.604;2023-12-14T20:05:37;22.90;;;15.88;;
55220;SDS011;41089;51.448;6.604;2023-12-14T20:11:43;20.85;;;15.88;;
55220;SDS011;41089;51.448;6.604;2023-12-14T20:17:43;20.35;;;15.00;;
55220;SDS011;41089;51.448;6.604;2023-12-14T20:23:44;21.47;;;15.50;;
55220;SDS011;41089;51.448;6.604;2023-12-14T20:29:45;21.67;;;16.17;;
55220;SDS011;41089;51.448;6.604;2023-12-14T20:35:46;22.45;;;16.73;;
55220;SDS011;41089;51.448;6.604;2023-12-14T20:41:48;23.13;;;17.23;;
55220;SDS011;41089;51.448;6.604;2023-12-14T20:47:48;24.15;;;17.55;;
55220;SDS011;41089;51.448;6.604;2023-12-14T20:53:49;21.10;;;15.85;;
55220;SDS011;41089;51.448;6.604;2023-12-14T20:59:49;24.60;;;18.20;;
55220;SDS011;41089;51.448;6.604;2023-12-14T21:05:51;24.70;;;17.43;;
55220;SDS011;41089;51.448;6.604;2023-12-14T21:11:52;25.27;;;18.33;;
55220;SDS011;41089;51.448;6.604;2023-12-14T21:17:52;21.77;;;17.30;;
55220;SDS011;41089;51.448;6.604;2023-12-14T21:23:53;24.77;;;18.48;;
55220;SDS011;41089;51.448;6.604;2023-12-14T21:29:53;20.08;;;15.90;;
55220;SDS011;41089;51.448;6.604;2023-12-14T21:35:54;24.77;;;17.67;;
55220;SDS011;41089;51.448;6.604;2023-12-14T21:41:54;26.33;;;17.73;;
55220;SDS011;41089;51.448;6.604;2023-12-14T21:47:55;24.50;;;17.50;;
55220;SDS011;41089;51.448;6.604;2023-12-14T21:53:55;23.20;;;16.98;;
55220;SDS011;41089;51.448;6.604;2023-12-14T21:59:57;24.77;;;17.50;;
55220;SDS011;41089;51.448;6.604;2023-12-14T22:05:58;25.67;;;17.90;;
55220;SDS011;41089;51.448;6.604;2023-12-14T22:11:58;23.55;;;16.67;;
55220;SDS011;41089;51.448;6.604;2023-12-14T22:17:59;26.20;;;18.20;;
55220;SDS011;41089;51.448;6.604;2023-12-14T22:23:59;23.43;;;18.10;;
55220;SDS011;41089;51.448;6.604;2023-12-14T22:29:59;25.20;;;18.92;;
55220;SDS011;41089;51.448;6.604;2023-12-14T22:36:00;22.40;;;17.57;;
55220;SDS011;41089;51.448;6.604;2023-12-14T22:42:00;27.33;;;18.67;;
55220;SDS011;41089;51.448;6.604;2023-12-14T22:48:01;27.83;;;18.90;;
55220;SDS011;41089;51.448;6.604;2023-12-14T22:54:02;23.70;;;18.15;;
55220;SDS011;41089;51.448;6.604;2023-12-14T23:00:03;27.58;;;19.52;;
55220;SDS011;41089;51.448;6.604;2023-12-14T23:06:05;29.27;;;19.70;;
55220;SDS011;41089;51.448;6.604;2023-12-14T23:12:07;28.55;;;18.80;;
55220;SDS011;41089;51.448;6.604;2023-12-14T23:18:07;27.38;;;18.83;;
55220;SDS011;41089;51.448;6.604;2023-12-14T23:24:08;26.15;;;18.45;;
55220;SDS011;41089;51.448;6.604;2023-12-14T23:30:08;25.75;;;17.85;;
55220;SDS011;41089;51.448;6.604;2023-12-14T23:36:09;28.83;;;19.30;;
55220;SDS011;41089;51.448;6.604;2023-12-14T23:42:10;23.88;;;17.45;;
55220;SDS011;41089;51.448;6.604;2023-12-14T23:48:10;24.27;;;18.40;;
55220;SDS011;41089;51.448;6.604;2023-12-14T23:54:10;29.13;;;16.90;;
